createdAt,value
2018-01-08T00:01:26.125Z,96775.23
2018-01-08T00:03:53.871Z,96783.83
2018-01-08T00:06:21.474Z,96775.91
2018-01-08T00:08:49.109Z,96774.66
2018-01-08T00:11:16.681Z,96777.25
2018-01-08T00:13:44.276Z,96772.87
2018-01-08T00:16:11.890Z,96767.63
2018-01-08T00:18:39.491Z,96758.70
2018-01-08T00:21:07.239Z,96760.29
2018-01-08T00:23:34.812Z,96766.56
2018-01-08T00:26:02.445Z,96776.73
2018-01-08T00:28:30.107Z,96786.70
2018-01-08T00:30:57.694Z,96796.67
2018-01-08T00:33:25.437Z,96800.75
2018-01-08T00:35:53.124Z,96795.98
2018-01-08T00:38:20.716Z,96786.70
2018-01-08T00:40:48.294Z,96785.32
2018-01-08T00:43:15.870Z,96786.52
2018-01-08T00:45:43.473Z,96786.76
2018-01-08T00:48:11.018Z,96780.58
2018-01-08T00:50:38.588Z,96774.97
2018-01-08T00:53:06.299Z,96772.09
2018-01-08T00:55:33.901Z,96774.84
2018-01-08T00:58:01.522Z,96776.05
2018-01-08T01:00:29.101Z,96769.12
2018-01-08T01:02:56.656Z,96771.49
2018-01-08T01:05:24.226Z,96772.87
2018-01-08T01:07:51.807Z,96775.67
2018-01-08T01:10:19.368Z,96776.41
2018-01-08T01:12:46.948Z,96773.88
2018-01-08T01:15:14.647Z,96782.86
2018-01-08T01:17:42.251Z,96787.79
2018-01-08T01:20:09.857Z,96779.38
2018-01-08T01:22:37.506Z,96776.61
2018-01-08T01:25:05.182Z,96765.63
2018-01-08T01:27:32.772Z,96763.42
2018-01-08T01:30:00.397Z,96772.69
2018-01-08T01:32:27.966Z,96782.94
2018-01-08T01:34:55.518Z,96785.14
2018-01-08T01:37:23.095Z,96787.27
2018-01-08T01:39:50.680Z,96789.23
2018-01-08T01:42:18.265Z,96791.16
2018-01-08T01:44:45.866Z,96795.91
2018-01-08T01:47:13.925Z,96783.38
2018-01-08T01:49:41.481Z,96781.48
2018-01-08T01:52:09.265Z,96778.03
2018-01-08T01:54:36.874Z,96780.89
2018-01-08T01:57:04.475Z,96773.02
2018-01-08T01:59:32.104Z,96777.49
2018-01-08T02:01:59.694Z,96770.81
2018-01-08T02:04:27.266Z,96778.00
2018-01-08T02:06:54.889Z,96778.77
2018-01-08T02:09:22.472Z,96781.48
2018-01-08T02:11:50.084Z,96777.34
2018-01-08T02:14:17.654Z,96780.83
2018-01-08T02:16:45.237Z,96789.19
2018-01-08T02:19:13.257Z,96790.59
2018-01-08T02:21:40.822Z,96782.19
2018-01-08T02:24:08.436Z,96779.63
2018-01-08T02:26:36.039Z,96779.73
2018-01-08T02:29:03.648Z,96772.67
2018-01-08T02:31:31.274Z,96772.45
2018-01-08T02:33:58.918Z,96767.08
2018-01-08T02:36:26.576Z,96769.21
2018-01-08T02:38:54.196Z,96764.75
2018-01-08T02:41:21.847Z,96764.55
2018-01-08T02:43:49.429Z,96765.31
2018-01-08T02:46:17.006Z,96770.38
2018-01-08T02:48:44.732Z,96777.12
2018-01-08T02:51:13.281Z,96785.37
2018-01-08T02:53:41.263Z,96787.61
2018-01-08T02:56:08.917Z,96795.34
2018-01-08T02:58:36.513Z,96802.63
2018-01-08T03:01:04.152Z,96800.89
2018-01-08T03:03:32.137Z,96799.23
2018-01-08T03:05:59.714Z,96801.83
2018-01-08T03:08:27.330Z,96795.32
2018-01-08T03:10:54.889Z,96799.37
2018-01-08T03:13:22.449Z,96797.80
2018-01-08T03:18:24.569Z,96803.73
2018-01-08T03:20:52.156Z,96804.22
2018-01-08T03:23:19.735Z,96809.16
2018-01-08T03:25:47.357Z,96808.73
2018-01-08T03:28:14.945Z,96810.70
2018-01-08T03:30:42.725Z,96801.25
2018-01-08T03:33:10.450Z,96804.65
2018-01-08T03:35:38.012Z,96799.73
2018-01-08T03:38:05.601Z,96802.97
2018-01-08T03:40:33.306Z,96807.34
2018-01-08T03:43:02.405Z,96802.25
2018-01-08T03:45:30.121Z,96792.36
2018-01-08T03:47:57.721Z,96787.27
2018-01-08T03:50:25.313Z,96796.17
2018-01-08T03:52:57.008Z,96794.92
2018-01-08T03:55:24.881Z,96789.66
2018-01-08T03:57:52.448Z,96789.84
2018-01-08T04:00:20.216Z,96791.60
2018-01-08T04:02:47.859Z,96790.83
2018-01-08T04:05:15.578Z,96792.71
2018-01-08T04:07:43.214Z,96789.72
2018-01-08T04:10:10.775Z,96802.88
2018-01-08T04:12:38.397Z,96794.83
2018-01-08T04:15:06.120Z,96792.59
2018-01-08T04:17:34.365Z,96797.08
2018-01-08T04:20:01.953Z,96798.36
2018-01-08T04:22:29.547Z,96798.72
2018-01-08T04:24:57.106Z,96807.02
2018-01-08T04:27:24.710Z,96809.00
2018-01-08T04:29:52.361Z,96807.87
2018-01-08T04:32:20.392Z,96811.41
2018-01-08T04:34:47.957Z,96820.42
2018-01-08T04:37:15.551Z,96820.69
2018-01-08T04:39:43.165Z,96828.23
2018-01-08T04:42:10.738Z,96831.63
2018-01-08T04:44:38.317Z,96835.42
2018-01-08T04:47:06.074Z,96829.73
2018-01-08T04:49:33.647Z,96831.02
2018-01-08T04:52:01.194Z,96829.66
2018-01-08T04:54:28.813Z,96836.87
2018-01-08T04:56:56.416Z,96835.60
2018-01-08T04:59:23.980Z,96844.41
2018-01-08T05:01:51.592Z,96842.17
2018-01-08T05:04:19.958Z,96844.03
2018-01-08T05:06:47.528Z,96847.42
2018-01-08T05:09:15.112Z,96837.61
2018-01-08T05:11:42.671Z,96839.84
2018-01-08T05:14:10.735Z,96841.03
2018-01-08T05:16:38.361Z,96844.99
2018-01-08T05:19:05.982Z,96839.89
2018-01-08T05:21:33.549Z,96836.48
2018-01-08T05:24:01.193Z,96831.17
2018-01-08T05:26:28.794Z,96828.80
2018-01-08T05:28:56.367Z,96836.46
2018-01-08T05:31:23.984Z,96839.76
2018-01-08T05:33:51.570Z,96838.30
2018-01-08T05:36:19.164Z,96842.52
2018-01-08T05:38:46.728Z,96848.16
2018-01-08T05:41:14.301Z,96856.27
2018-01-08T05:43:41.878Z,96850.58
2018-01-08T05:46:09.531Z,96853.11
2018-01-08T05:48:37.117Z,96844.98
2018-01-08T05:51:04.734Z,96845.92
2018-01-08T05:53:33.154Z,96845.33
2018-01-08T05:56:00.763Z,96852.80
2018-01-08T05:58:28.340Z,96874.33
2018-01-08T06:00:55.993Z,96886.19
2018-01-08T06:03:24.243Z,96881.77
2018-01-08T06:05:51.820Z,96888.34
2018-01-08T06:08:19.403Z,96886.02
2018-01-08T06:10:47.030Z,96887.00
2018-01-08T06:13:14.624Z,96887.78
2018-01-08T06:15:42.205Z,96877.47
2018-01-08T06:18:09.792Z,96878.67
2018-01-08T06:20:37.379Z,96884.25
2018-01-08T06:23:05.092Z,96877.89
2018-01-08T06:25:32.753Z,96880.44
2018-01-08T06:28:00.396Z,96883.02
2018-01-08T06:30:28.819Z,96885.63
2018-01-08T06:32:56.443Z,96884.43
2018-01-08T06:35:24.213Z,96881.11
2018-01-08T06:37:51.780Z,96884.23
2018-01-08T06:40:19.399Z,96889.93
2018-01-08T06:42:47.000Z,96894.11
2018-01-08T06:48:04.787Z,96890.87
2018-01-08T06:50:34.611Z,96894.67
2018-01-08T06:53:02.204Z,96908.59
2018-01-08T06:55:29.817Z,96906.56
2018-01-08T06:57:57.381Z,96910.52
2018-01-08T07:00:24.950Z,96912.14
2018-01-08T07:02:52.550Z,96912.31
2018-01-08T07:05:20.781Z,96920.06
2018-01-08T07:07:49.960Z,96919.13
2018-01-08T07:10:17.572Z,96929.94
2018-01-08T07:12:45.739Z,96926.92
2018-01-08T07:15:13.954Z,96933.17
2018-01-08T07:17:41.595Z,96926.41
2018-01-08T07:20:10.623Z,96931.77
2018-01-08T07:25:46.416Z,96931.95
2018-01-08T07:28:15.207Z,96939.88
2018-01-08T07:30:42.760Z,96940.84
2018-01-08T07:33:10.825Z,96942.22
2018-01-08T07:35:39.454Z,96947.60
2018-01-08T07:38:07.527Z,96936.77
2018-01-08T07:40:35.145Z,96944.91
2018-01-08T07:43:02.775Z,96942.06
2018-01-08T07:45:30.439Z,96942.08
2018-01-08T07:48:00.152Z,96944.08
2018-01-08T07:50:27.788Z,96939.38
2018-01-08T07:52:55.366Z,96939.60
2018-01-08T07:55:22.957Z,96938.17
2018-01-08T07:57:58.736Z,96936.12
2018-01-08T08:00:26.301Z,96933.36
2018-01-08T08:02:54.025Z,96933.80
2018-01-08T08:05:23.001Z,96933.35
2018-01-08T08:07:50.588Z,96942.34
2018-01-08T08:10:18.176Z,96954.72
2018-01-08T08:12:45.732Z,96966.61
2018-01-08T08:15:13.660Z,96966.63
2018-01-08T08:17:41.392Z,96961.08
2018-01-08T08:20:08.983Z,96958.55
2018-01-08T08:22:36.539Z,96958.25
2018-01-08T08:25:04.139Z,96962.61
2018-01-08T08:27:31.700Z,96962.86
2018-01-08T08:29:59.280Z,96959.52
2018-01-08T08:35:16.921Z,96950.77
2018-01-08T08:37:44.489Z,96948.08
2018-01-08T08:40:12.087Z,96948.55
2018-01-08T08:42:39.684Z,96944.20
2018-01-08T08:45:07.429Z,96917.86
2018-01-08T08:47:34.999Z,96944.70
2018-01-08T08:50:02.629Z,96952.66
2018-01-08T08:52:30.213Z,96950.44
2018-01-08T08:54:57.755Z,96939.76
2018-01-08T08:57:25.871Z,96935.87
2018-01-08T08:59:53.672Z,96942.83
2018-01-08T09:02:21.678Z,96945.35
2018-01-08T09:04:49.456Z,96937.45
2018-01-08T09:07:17.085Z,96934.92
2018-01-08T09:09:44.639Z,96930.81
2018-01-08T09:12:12.204Z,96932.95
2018-01-08T09:14:39.817Z,96932.57
2018-01-08T09:17:08.194Z,96923.55
2018-01-08T09:19:35.923Z,96921.52
2018-01-08T09:22:03.616Z,96927.29
2018-01-08T09:24:31.203Z,96922.91
2018-01-08T09:26:58.807Z,96923.77
2018-01-08T09:29:27.491Z,96923.00
2018-01-08T09:31:55.071Z,96917.17
2018-01-08T09:34:23.382Z,96915.72
2018-01-08T09:36:51.034Z,96914.55
2018-01-08T09:39:18.591Z,96914.41
2018-01-08T09:41:46.148Z,96912.58
2018-01-08T09:44:13.781Z,96910.89
2018-01-08T09:46:41.349Z,96910.83
2018-01-08T09:49:09.503Z,96908.05
2018-01-08T09:51:37.081Z,96909.11
2018-01-08T09:54:04.794Z,96897.33
2018-01-08T09:56:32.340Z,96918.50
2018-01-08T09:58:59.938Z,96915.31
2018-01-08T10:01:27.531Z,96913.47
2018-01-08T10:04:06.795Z,96917.45
2018-01-08T10:06:46.111Z,96918.20
2018-01-08T10:09:26.847Z,96918.17
2018-01-08T10:12:06.234Z,96914.09
2018-01-08T10:14:45.374Z,96925.80
2018-01-08T10:17:25.351Z,96926.93
2018-01-08T10:19:56.950Z,96928.83
2018-01-08T10:22:24.518Z,96928.91
2018-01-08T10:24:52.097Z,96925.12
2018-01-08T10:27:20.339Z,96929.65
2018-01-08T10:29:47.946Z,96926.39
2018-01-08T10:32:15.755Z,96924.48
2018-01-08T10:34:43.336Z,96916.07
2018-01-08T10:37:12.553Z,96910.61
2018-01-08T10:39:40.195Z,96909.48
2018-01-08T10:42:14.887Z,96907.80
2018-01-08T10:44:48.172Z,96900.59
2018-01-08T10:47:21.361Z,96895.47
2018-01-08T10:49:54.781Z,96891.41
2018-01-08T10:52:23.088Z,96885.17
2018-01-08T10:55:07.214Z,96881.63
2018-01-08T10:57:35.213Z,96872.94
2018-01-08T11:00:02.954Z,96866.28
2018-01-08T11:02:37.037Z,96867.11
2018-01-08T11:05:04.793Z,96864.61
2018-01-08T11:07:32.409Z,96858.35
2018-01-08T11:10:03.127Z,96862.13
2018-01-08T11:12:31.122Z,96863.78
2018-01-08T11:15:02.907Z,96868.38
2018-01-08T11:17:30.576Z,96864.02
2018-01-08T11:20:00.972Z,96856.42
2018-01-08T11:22:30.477Z,96856.81
2018-01-08T11:24:58.081Z,96853.52
2018-01-08T11:27:25.725Z,96855.59
2018-01-08T11:29:53.290Z,96851.80
2018-01-08T11:32:23.930Z,96848.17
2018-01-08T11:34:51.834Z,96848.55
2018-01-08T11:37:19.488Z,96847.35
2018-01-08T11:39:47.195Z,96843.84
2018-01-08T11:42:15.499Z,96849.16
2018-01-08T11:44:44.265Z,96846.50
2018-01-08T11:47:12.913Z,96846.63
2018-01-08T11:49:40.483Z,96848.79
2018-01-08T11:52:08.060Z,96848.03
2018-01-08T11:54:35.664Z,96850.54
2018-01-08T11:57:03.281Z,96849.27
2018-01-08T11:59:30.902Z,96848.68
2018-01-08T12:01:58.475Z,96852.33
2018-01-08T12:04:26.235Z,96853.13
2018-01-08T12:06:54.072Z,96854.05
2018-01-08T12:09:21.666Z,96853.09
2018-01-08T12:11:49.299Z,96852.70
2018-01-08T12:14:16.883Z,96855.44
2018-01-08T12:16:44.484Z,96854.69
2018-01-08T12:19:12.084Z,96846.63
2018-01-08T12:21:39.639Z,96838.32
2018-01-08T12:24:07.313Z,96837.96
2018-01-08T12:26:34.950Z,96832.91
2018-01-08T12:29:02.547Z,96826.27
2018-01-08T12:31:30.119Z,96826.81
2018-01-08T12:33:57.713Z,96826.38
2018-01-08T12:36:26.648Z,96825.22
2018-01-08T12:38:54.287Z,96834.80
2018-01-08T12:41:22.439Z,96831.48
2018-01-08T12:43:50.118Z,96839.83
2018-01-08T12:46:17.874Z,96838.91
2018-01-08T12:48:45.528Z,96839.47
2018-01-08T12:51:13.455Z,96838.53
2018-01-08T12:53:41.041Z,96839.88
2018-01-08T12:56:08.657Z,96830.09
2018-01-08T12:58:36.313Z,96829.08
2018-01-08T13:01:03.958Z,96841.59
2018-01-08T13:03:31.572Z,96841.12
2018-01-08T13:05:59.133Z,96842.39
2018-01-08T13:08:26.818Z,96835.75
2018-01-08T13:10:55.210Z,96843.89
2018-01-08T13:13:25.797Z,96838.30
2018-01-08T13:15:55.186Z,96835.80
2018-01-08T13:18:25.837Z,96834.80
2018-01-08T13:20:54.143Z,96828.52
2018-01-08T13:23:21.893Z,96827.11
2018-01-08T13:25:49.577Z,96824.80
2018-01-08T13:28:17.611Z,96826.61
2018-01-08T13:30:45.491Z,96827.89
2018-01-08T13:33:15.213Z,96826.17
2018-01-08T13:35:43.145Z,96823.11
2018-01-08T13:38:12.462Z,96820.07
2018-01-08T13:40:40.677Z,96820.05
2018-01-08T13:43:09.123Z,96826.52
2018-01-08T13:45:37.472Z,96818.77
2018-01-08T13:48:07.898Z,96818.39
2018-01-08T13:50:35.476Z,96817.11
2018-01-08T13:53:03.129Z,96821.00
2018-01-08T13:55:30.686Z,96828.41
2018-01-08T13:57:58.282Z,96824.48
2018-01-08T14:00:25.882Z,96822.79
2018-01-08T14:02:53.466Z,96816.25
2018-01-08T14:05:21.069Z,96818.48
2018-01-08T14:07:48.690Z,96826.63
2018-01-08T14:10:16.361Z,96830.87
2018-01-08T14:12:44.086Z,96838.64
2018-01-08T14:15:11.994Z,96837.63
2018-01-08T14:17:39.554Z,96839.94
2018-01-08T14:20:07.149Z,96846.96
2018-01-08T14:22:34.825Z,96850.56
2018-01-08T14:25:02.578Z,96869.27
2018-01-08T14:27:30.270Z,96860.52
2018-01-08T14:29:57.919Z,96852.22
2018-01-08T14:32:25.544Z,96852.04
2018-01-08T14:34:53.108Z,96853.59
2018-01-08T14:37:21.061Z,96867.61
2018-01-08T14:39:48.614Z,96871.38
2018-01-08T14:42:16.767Z,96869.24
2018-01-08T14:44:44.399Z,96876.53
2018-01-08T14:47:12.281Z,96866.36
2018-01-08T14:49:39.830Z,96859.03
2018-01-08T14:52:07.422Z,96858.71
2018-01-08T14:54:34.982Z,96864.53
2018-01-08T14:57:02.566Z,96870.55
2018-01-08T14:59:30.149Z,96866.85
2018-01-08T15:02:00.122Z,96867.08
2018-01-08T15:04:31.968Z,96876.95
2018-01-08T15:06:59.601Z,96883.63
2018-01-08T15:09:27.459Z,96889.38
2018-01-08T15:11:56.128Z,96890.33
2018-01-08T15:14:23.758Z,96890.59
2018-01-08T15:16:51.497Z,96893.75
2018-01-08T15:19:19.073Z,96891.81
2018-01-08T15:21:46.689Z,96892.06
2018-01-08T15:24:20.127Z,96890.37
2018-01-08T15:26:49.050Z,96885.21
2018-01-08T15:29:16.623Z,96883.96
2018-01-08T15:31:44.165Z,96879.77
2018-01-08T15:34:11.730Z,96883.19
2018-01-08T15:36:39.270Z,96884.85
2018-01-08T15:39:07.671Z,96883.73
2018-01-08T15:41:35.313Z,96879.02
2018-01-08T15:44:02.857Z,96885.84
2018-01-08T15:46:30.414Z,96880.62
2018-01-08T15:48:57.993Z,96878.64
2018-01-08T15:51:25.555Z,96873.34
2018-01-08T15:53:53.130Z,96861.42
2018-01-08T15:56:20.743Z,96868.24
2018-01-08T15:58:48.287Z,96869.61
2018-01-08T16:01:15.923Z,96868.06
2018-01-08T16:03:43.518Z,96873.59
2018-01-08T16:06:11.090Z,96874.56
2018-01-08T16:08:38.656Z,96874.84
2018-01-08T16:11:06.269Z,96870.48
2018-01-08T16:13:33.869Z,96875.55
2018-01-08T16:16:01.435Z,96875.09
2018-01-08T16:18:29.002Z,96882.22
2018-01-08T16:20:56.621Z,96883.49
2018-01-08T16:23:24.265Z,96884.67
2018-01-08T16:25:51.837Z,96884.52
2018-01-08T16:28:19.416Z,96884.30
2018-01-08T16:30:47.037Z,96881.95
2018-01-08T16:33:14.595Z,96893.13
2018-01-08T16:35:42.280Z,96902.52
2018-01-08T16:38:09.915Z,96905.42
2018-01-08T16:40:37.497Z,96902.49
2018-01-08T16:43:05.198Z,96910.16
2018-01-08T16:45:33.368Z,96912.03
2018-01-08T16:48:00.983Z,96908.13
2018-01-08T16:50:28.560Z,96911.27
2018-01-08T16:52:56.120Z,96910.69
2018-01-08T16:55:24.113Z,96908.67
2018-01-08T16:57:51.736Z,96909.83
2018-01-08T17:00:19.460Z,96905.67
2018-01-08T17:02:47.049Z,96898.20
2018-01-08T17:05:15.114Z,96897.32
2018-01-08T17:07:42.714Z,96891.42
2018-01-08T17:10:10.304Z,96889.06
2018-01-08T17:12:38.334Z,96884.73
2018-01-08T17:15:06.102Z,96882.73
2018-01-08T17:17:33.681Z,96889.30
2018-01-08T17:20:01.248Z,96889.50
2018-01-08T17:22:28.882Z,96888.43
2018-01-08T17:24:56.461Z,96897.87
2018-01-08T17:27:24.248Z,96898.63
2018-01-08T17:29:51.866Z,96898.28
2018-01-08T17:32:19.808Z,96898.36
2018-01-08T17:34:47.380Z,96893.22
2018-01-08T17:37:15.060Z,96897.05
2018-01-08T17:39:42.663Z,96899.36
2018-01-08T17:42:10.316Z,96898.13
2018-01-08T17:44:38.063Z,96896.86
2018-01-08T17:47:06.022Z,96906.84
2018-01-08T17:49:33.987Z,96900.06
2018-01-08T17:52:01.800Z,96901.34
2018-01-08T17:54:29.373Z,96904.08
2018-01-08T17:56:56.916Z,96903.39
2018-01-08T17:59:24.492Z,96905.77
2018-01-08T18:01:52.140Z,96911.87
2018-01-08T18:04:19.710Z,96910.44
2018-01-08T18:06:47.373Z,96907.09
2018-01-08T18:09:14.954Z,96906.73
2018-01-08T18:11:47.407Z,96897.89
2018-01-08T18:14:21.981Z,96898.63
2018-01-08T18:16:56.227Z,96900.00
2018-01-08T18:19:26.209Z,96900.88
2018-01-08T18:21:53.939Z,96907.41
2018-01-08T18:24:22.186Z,96902.05
2018-01-08T18:26:49.835Z,96895.27
2018-01-08T18:29:17.531Z,96884.89
2018-01-08T18:31:45.222Z,96892.77
2018-01-08T18:34:12.936Z,96898.94
2018-01-08T18:36:40.523Z,96902.97
2018-01-08T18:39:08.417Z,96899.05
2018-01-08T18:41:36.054Z,96901.05
2018-01-08T18:44:03.612Z,96914.69
2018-01-08T18:46:31.172Z,96907.13
2018-01-08T18:48:58.809Z,96905.88
2018-01-08T18:51:27.281Z,96913.50
2018-01-08T18:53:54.844Z,96917.48
2018-01-08T18:56:23.247Z,96914.91
2018-01-08T18:58:51.736Z,96909.77
2018-01-08T19:01:19.330Z,96905.48
2018-01-08T19:03:46.921Z,96907.70
2018-01-08T19:06:14.856Z,96906.84
2018-01-08T19:08:42.413Z,96912.09
2018-01-08T19:11:10.102Z,96912.05
2018-01-08T19:13:37.772Z,96910.84
2018-01-08T19:16:05.384Z,96890.27
2018-01-08T19:18:33.033Z,96896.30
2018-01-08T19:21:00.723Z,96896.41
2018-01-08T19:23:28.528Z,96894.66
2018-01-08T19:25:56.209Z,96896.86
2018-01-08T19:28:23.767Z,96904.28
2018-01-08T19:30:51.352Z,96898.61
2018-01-08T19:33:19.210Z,96906.41
2018-01-08T19:35:46.792Z,96903.18
2018-01-08T19:38:14.377Z,96891.41
2018-01-08T19:40:42.009Z,96895.89
2018-01-08T19:43:09.568Z,96892.53
2018-01-08T19:45:37.228Z,96896.05
2018-01-08T19:48:04.874Z,96892.30
2018-01-08T19:50:32.440Z,96888.31
2018-01-08T19:53:02.580Z,96884.83
2018-01-08T19:55:30.211Z,96880.98
2018-01-08T19:57:57.767Z,96886.42
2018-01-08T20:00:25.407Z,96879.56
2018-01-08T20:02:52.966Z,96868.45
2018-01-08T20:05:20.539Z,96882.60
2018-01-08T20:07:48.125Z,96880.23
2018-01-08T20:10:15.695Z,96882.48
2018-01-08T20:12:43.229Z,96876.09
2018-01-08T20:15:11.236Z,96867.64
2018-01-08T20:17:38.793Z,96874.50
2018-01-08T20:20:06.359Z,96873.77
2018-01-08T20:22:33.947Z,96865.80
2018-01-08T20:25:01.544Z,96868.33
2018-01-08T20:27:29.408Z,96860.89
2018-01-08T20:29:57.040Z,96856.95
2018-01-08T20:32:25.243Z,96852.02
2018-01-08T20:34:52.826Z,96853.98
2018-01-08T20:37:20.803Z,96847.95
2018-01-08T20:39:48.370Z,96852.41
2018-01-08T20:42:15.965Z,96847.13
2018-01-08T20:44:43.546Z,96852.13
2018-01-08T20:47:12.346Z,96850.67
2018-01-08T20:49:39.919Z,96850.77
2018-01-08T20:52:07.568Z,96852.73
2018-01-08T20:54:35.142Z,96849.23
2018-01-08T20:57:02.715Z,96838.35
2018-01-08T20:59:30.292Z,96845.88
2018-01-08T21:01:57.852Z,96848.77
2018-01-08T21:04:25.467Z,96850.53
2018-01-08T21:06:53.079Z,96849.65
2018-01-08T21:09:20.840Z,96848.98
2018-01-08T21:11:48.462Z,96853.45
2018-01-08T21:14:16.063Z,96854.60
2018-01-08T21:16:43.633Z,96854.78
2018-01-08T21:19:11.334Z,96855.13
2018-01-08T21:21:38.940Z,96851.16
2018-01-08T21:24:06.539Z,96851.16
2018-01-08T21:26:34.112Z,96859.02
2018-01-08T21:29:01.695Z,96850.22
2018-01-08T21:31:29.342Z,96845.98
2018-01-08T21:33:56.935Z,96839.66
2018-01-08T21:36:24.563Z,96834.97
2018-01-08T21:38:52.178Z,96832.47
2018-01-08T21:41:19.768Z,96838.48
2018-01-08T21:43:48.561Z,96842.78
2018-01-08T21:46:16.458Z,96824.47
2018-01-08T21:48:44.067Z,96823.89
2018-01-08T21:51:12.013Z,96821.83
2018-01-08T21:53:39.613Z,96824.68
2018-01-08T21:56:07.197Z,96823.06
2018-01-08T21:58:34.762Z,96810.56
2018-01-08T22:01:02.324Z,96806.58
2018-01-08T22:03:30.787Z,96818.55
2018-01-08T22:05:58.428Z,96816.52
2018-01-08T22:08:25.979Z,96803.50
2018-01-08T22:10:53.561Z,96802.62
2018-01-08T22:13:21.133Z,96813.25
2018-01-08T22:15:48.746Z,96811.42
2018-01-08T22:18:16.301Z,96814.45
2018-01-08T22:20:43.926Z,96805.70
2018-01-08T22:23:11.978Z,96794.09
2018-01-08T22:25:39.524Z,96808.30
2018-01-08T22:28:07.107Z,96801.52
2018-01-08T22:30:34.728Z,96801.48
2018-01-08T22:33:02.300Z,96803.05
2018-01-08T22:35:29.890Z,96796.59
2018-01-08T22:37:57.527Z,96791.78
2018-01-08T22:40:25.113Z,96784.30
2018-01-08T22:42:52.686Z,96779.27
2018-01-08T22:45:20.298Z,96780.34
2018-01-08T22:47:47.889Z,96780.52
2018-01-08T22:50:15.515Z,96787.48
2018-01-08T22:55:33.726Z,96768.83
2018-01-08T22:58:01.299Z,96780.15
2018-01-08T23:00:28.908Z,96773.88
2018-01-08T23:02:56.511Z,96787.63
2018-01-08T23:05:24.086Z,96774.33
2018-01-08T23:07:51.722Z,96785.00
2018-01-08T23:10:19.357Z,96779.66
2018-01-08T23:12:48.788Z,96779.08
2018-01-08T23:15:16.614Z,96770.58
2018-01-08T23:17:44.184Z,96783.64
2018-01-08T23:20:11.756Z,96783.36
2018-01-08T23:22:39.418Z,96782.13
2018-01-08T23:25:07.134Z,96780.96
2018-01-08T23:27:34.747Z,96779.84
2018-01-08T23:30:02.357Z,96769.55
2018-01-08T23:32:30.071Z,96779.27
2018-01-08T23:34:58.879Z,96759.53
2018-01-08T23:37:26.470Z,96778.20
2018-01-08T23:39:54.065Z,96768.21
2018-01-08T23:42:23.534Z,96767.79
2018-01-08T23:44:51.162Z,96766.94
2018-01-08T23:47:18.775Z,96762.39
2018-01-08T23:49:46.421Z,96769.45
2018-01-08T23:52:14.026Z,96767.48
2018-01-08T23:54:41.667Z,96765.18
2018-01-08T23:57:09.839Z,96765.78
2018-01-08T23:59:37.489Z,96749.84
